createdAt,value
2018-07-05T00:02:34.242Z,46.51
2018-07-05T00:05:14.057Z,46.26
2018-07-05T00:07:54.002Z,46.16
2018-07-05T00:10:33.788Z,46.75
2018-07-05T00:13:14.029Z,46.93
2018-07-05T00:15:53.725Z,47.11
2018-07-05T00:18:33.434Z,47.26
2018-07-05T00:21:13.252Z,47.16
2018-07-05T00:23:52.884Z,47.89
2018-07-05T00:26:32.541Z,47.04
2018-07-05T00:29:12.253Z,47.42
2018-07-05T00:31:52.077Z,46.78
2018-07-05T00:34:31.806Z,47.58
2018-07-05T00:37:11.619Z,47.82
2018-07-05T00:39:51.427Z,47.60
2018-07-05T00:42:31.213Z,47.57
2018-07-05T00:45:10.854Z,47.65
2018-07-05T00:47:50.687Z,47.93
2018-07-05T00:50:30.348Z,48.74
2018-07-05T00:53:10.228Z,48.66
2018-07-05T00:55:49.940Z,48.66
2018-07-05T00:58:29.721Z,48.49
2018-07-05T01:01:09.575Z,48.23
2018-07-05T01:03:49.325Z,48.47
2018-07-05T01:06:29.280Z,49.25
2018-07-05T01:09:09.060Z,49.47
2018-07-05T01:11:48.821Z,49.03
2018-07-05T01:14:28.604Z,49.86
2018-07-05T01:17:08.418Z,50.24
2018-07-05T01:19:48.200Z,49.22
2018-07-05T01:22:27.900Z,49.67
2018-07-05T01:25:07.675Z,50.31
2018-07-05T01:27:47.496Z,50.60
2018-07-05T01:30:27.264Z,49.83
2018-07-05T01:33:06.970Z,49.90
2018-07-05T01:35:46.778Z,50.08
2018-07-05T01:38:26.421Z,50.45
2018-07-05T01:41:06.221Z,50.19
2018-07-05T01:43:45.852Z,50.79
2018-07-05T01:46:25.652Z,50.03
2018-07-05T01:49:05.365Z,50.34
2018-07-05T01:51:44.941Z,50.07
2018-07-05T01:54:24.652Z,50.42
2018-07-05T01:57:04.395Z,50.34
2018-07-05T01:59:44.166Z,50.72
2018-07-05T02:02:23.987Z,51.09
2018-07-05T02:05:03.652Z,50.54
2018-07-05T02:07:43.381Z,50.11
2018-07-05T02:10:23.046Z,50.92
2018-07-05T02:13:02.898Z,50.97
2018-07-05T02:15:42.612Z,50.43
2018-07-05T02:18:22.458Z,51.12
2018-07-05T02:21:02.235Z,50.90
2018-07-05T02:23:42.035Z,51.68
2018-07-05T02:26:21.874Z,51.48
2018-07-05T02:29:01.676Z,52.02
2018-07-05T02:31:41.453Z,51.72
2018-07-05T02:34:21.385Z,51.79
2018-07-05T02:37:01.032Z,51.71
2018-07-05T02:39:48.235Z,51.20
2018-07-05T02:42:27.867Z,51.37
2018-07-05T02:45:07.741Z,51.28
2018-07-05T02:47:47.449Z,52.06
2018-07-05T02:50:27.099Z,51.98
2018-07-05T02:53:06.864Z,51.39
2018-07-05T02:55:46.581Z,51.92
2018-07-05T02:58:26.395Z,51.41
2018-07-05T03:01:06.149Z,51.85
2018-07-05T03:03:45.964Z,51.61
2018-07-05T03:06:25.772Z,51.24
2018-07-05T03:09:05.660Z,52.01
2018-07-05T03:11:45.271Z,52.02
2018-07-05T03:14:24.902Z,51.66
2018-07-05T03:17:04.690Z,51.27
2018-07-05T03:19:44.525Z,51.30
2018-07-05T03:22:24.284Z,52.09
2018-07-05T03:25:03.997Z,51.94
2018-07-05T03:27:43.774Z,52.04
2018-07-05T03:30:23.592Z,51.88
2018-07-05T03:33:03.356Z,52.07
2018-07-05T03:35:43.204Z,51.73
2018-07-05T03:38:22.819Z,51.96
2018-07-05T03:41:02.604Z,51.70
2018-07-05T03:43:42.310Z,51.29
2018-07-05T03:46:22.087Z,52.00
2018-07-05T03:49:01.877Z,51.80
2018-07-05T03:51:41.592Z,51.83
2018-07-05T03:54:21.323Z,51.79
2018-07-05T03:57:01.013Z,51.43
2018-07-05T03:59:40.928Z,51.67
2018-07-05T04:02:20.732Z,51.75
2018-07-05T04:05:00.555Z,52.16
2018-07-05T04:09:09.492Z,51.35
2018-07-05T04:11:49.131Z,51.17
2018-07-05T04:14:28.833Z,50.95
2018-07-05T04:17:08.553Z,51.06
2018-07-05T04:19:50.651Z,51.09
2018-07-05T04:22:30.397Z,51.54
2018-07-05T04:25:10.655Z,52.24
2018-07-05T04:27:50.504Z,51.72
2018-07-05T04:30:30.248Z,52.48
2018-07-05T04:33:09.968Z,52.61
2018-07-05T04:35:49.740Z,52.31
2018-07-05T04:38:29.424Z,52.44
2018-07-05T04:41:09.264Z,52.58
2018-07-05T04:43:49.050Z,52.80
2018-07-05T04:46:28.665Z,52.18
2018-07-05T04:49:08.445Z,52.37
2018-07-05T04:51:48.143Z,53.18
2018-07-05T04:54:27.935Z,53.35
2018-07-05T04:57:07.577Z,53.30
2018-07-05T04:59:47.462Z,53.47
2018-07-05T05:02:27.141Z,52.97
2018-07-05T05:05:07.758Z,53.11
2018-07-05T05:07:46.604Z,53.17
2018-07-05T05:10:26.416Z,53.81
2018-07-05T05:13:06.220Z,53.21
2018-07-05T05:15:46.023Z,53.84
2018-07-05T05:18:25.803Z,53.55
2018-07-05T05:21:05.541Z,53.73
2018-07-05T05:23:45.262Z,53.29
2018-07-05T05:26:24.919Z,53.69
2018-07-05T05:29:04.627Z,53.80
2018-07-05T05:31:44.396Z,53.28
2018-07-05T05:34:24.247Z,53.62
2018-07-05T05:37:03.838Z,53.17
2018-07-05T05:39:43.644Z,53.55
2018-07-05T05:42:23.410Z,52.24
2018-07-05T05:45:03.230Z,52.18
2018-07-05T05:47:42.976Z,52.33
2018-07-05T05:50:22.740Z,52.20
2018-07-05T05:53:02.464Z,51.42
2018-07-05T05:55:42.376Z,51.05
2018-07-05T05:58:22.092Z,51.09
2018-07-05T06:01:01.952Z,50.39
2018-07-05T06:03:41.716Z,50.42
2018-07-05T06:06:21.472Z,50.21
2018-07-05T06:09:01.146Z,49.73
2018-07-05T06:11:40.782Z,49.50
2018-07-05T06:14:20.536Z,48.98
2018-07-05T06:17:00.296Z,48.62
2018-07-05T06:19:40.124Z,48.68
2018-07-05T06:22:19.829Z,48.26
2018-07-05T06:24:59.335Z,48.26
2018-07-05T06:27:38.950Z,46.98
2018-07-05T06:30:18.718Z,47.30
2018-07-05T06:32:58.544Z,46.09
2018-07-05T06:35:38.328Z,46.39
2018-07-05T06:38:17.967Z,46.09
2018-07-05T06:40:57.841Z,45.00
2018-07-05T06:43:37.504Z,43.02
2018-07-05T06:46:17.240Z,44.35
2018-07-05T06:48:57.070Z,44.09
2018-07-05T06:51:36.925Z,43.37
2018-07-05T06:54:16.588Z,43.30
2018-07-05T06:56:56.341Z,42.19
2018-07-05T06:59:36.225Z,42.32
2018-07-05T07:02:16.106Z,41.76
2018-07-05T07:04:55.915Z,41.31
2018-07-05T07:07:35.748Z,40.86
2018-07-05T07:10:15.458Z,40.60
2018-07-05T07:12:55.369Z,41.26
2018-07-05T07:15:35.686Z,41.90
2018-07-05T07:18:15.447Z,41.17
2018-07-05T07:20:55.205Z,41.23
2018-07-05T07:23:35.057Z,40.38
2018-07-05T07:26:14.680Z,39.71
2018-07-05T07:28:54.468Z,39.17
2018-07-05T07:31:34.102Z,38.86
2018-07-05T07:34:13.685Z,38.51
2018-07-05T07:36:53.412Z,39.16
2018-07-05T07:39:33.091Z,36.18
2018-07-05T07:42:00.363Z,33.68
2018-07-05T07:44:27.697Z,34.80
2018-07-05T07:46:54.935Z,36.74
2018-07-05T07:49:22.184Z,37.09
2018-07-05T07:51:49.457Z,36.10
2018-07-05T07:54:16.719Z,36.56
2018-07-05T07:56:43.997Z,34.45
2018-07-05T07:59:11.260Z,36.21
2018-07-05T08:01:38.521Z,35.65
2018-07-05T08:04:05.786Z,35.36
2018-07-05T08:06:33.046Z,33.86
2018-07-05T08:09:00.306Z,33.02
2018-07-05T08:11:27.566Z,33.87
2018-07-05T08:13:54.817Z,32.53
2018-07-05T08:16:22.099Z,33.24
2018-07-05T08:18:49.350Z,32.29
2018-07-05T08:21:16.609Z,32.25
2018-07-05T08:23:43.872Z,33.02
2018-07-05T08:26:11.209Z,32.64
2018-07-05T08:28:38.451Z,31.87
2018-07-05T08:31:05.704Z,29.52
2018-07-05T08:33:33.060Z,29.95
2018-07-05T08:36:00.312Z,30.27
2018-07-05T08:38:27.564Z,28.81
2018-07-05T08:40:54.817Z,28.58
2018-07-05T08:43:22.080Z,29.12
2018-07-05T08:45:49.330Z,28.15
2018-07-05T08:48:16.605Z,28.29
2018-07-05T08:50:43.867Z,27.05
2018-07-05T08:53:11.117Z,26.14
2018-07-05T08:55:38.372Z,26.16
2018-07-05T08:58:05.621Z,26.98
2018-07-05T09:00:32.952Z,25.52
2018-07-05T09:03:00.206Z,27.08
2018-07-05T09:05:27.448Z,25.89
2018-07-05T09:07:54.735Z,24.59
2018-07-05T09:10:21.986Z,25.71
2018-07-05T09:12:49.234Z,23.18
2018-07-05T09:15:16.486Z,24.97
2018-07-05T09:17:43.730Z,23.96
2018-07-05T09:20:10.993Z,24.82
2018-07-05T09:22:38.240Z,23.74
2018-07-05T09:25:05.576Z,23.18
2018-07-05T09:27:32.873Z,22.88
2018-07-05T09:30:00.137Z,22.90
2018-07-05T09:32:27.432Z,21.79
2018-07-05T09:34:54.712Z,22.33
2018-07-05T09:37:22.005Z,21.85
2018-07-05T09:39:49.260Z,21.93
2018-07-05T09:42:16.522Z,22.76
2018-07-05T09:44:43.762Z,22.64
2018-07-05T09:47:11.033Z,21.72
2018-07-05T09:49:38.308Z,21.80
2018-07-05T09:52:05.562Z,23.15
2018-07-05T09:54:32.813Z,22.86
2018-07-05T09:57:00.071Z,22.04
2018-07-05T09:59:27.340Z,23.18
2018-07-05T10:01:54.605Z,23.95
2018-07-05T10:04:22.363Z,24.39
2018-07-05T10:06:49.632Z,24.15
2018-07-05T10:09:16.911Z,24.49
2018-07-05T10:11:44.167Z,24.26
2018-07-05T10:14:11.421Z,25.09
2018-07-05T10:16:38.671Z,25.34
2018-07-05T10:19:05.929Z,25.51
2018-07-05T10:21:33.184Z,25.41
2018-07-05T10:24:00.466Z,26.08
2018-07-05T10:26:27.740Z,25.77
2018-07-05T10:29:07.253Z,26.00
2018-07-05T10:31:47.045Z,24.22
2018-07-05T10:34:14.362Z,25.33
2018-07-05T10:36:41.613Z,24.51
2018-07-05T10:39:08.864Z,24.65
2018-07-05T10:41:48.684Z,23.59
2018-07-05T10:44:28.608Z,24.30
2018-07-05T10:47:08.510Z,23.97
2018-07-05T10:49:48.146Z,23.59
2018-07-05T10:52:27.758Z,24.42
2018-07-05T10:55:07.511Z,25.12
2018-07-05T10:57:47.117Z,25.08
2018-07-05T11:00:26.956Z,23.59
2018-07-05T11:03:06.705Z,24.98
2018-07-05T11:05:46.524Z,25.73
2018-07-05T11:08:26.276Z,25.60
2018-07-05T11:11:05.980Z,25.99
2018-07-05T11:13:45.761Z,26.16
2018-07-05T11:16:25.604Z,26.52
2018-07-05T11:19:05.455Z,27.86
2018-07-05T11:21:45.165Z,28.07
2018-07-05T11:24:24.977Z,27.27
2018-07-05T11:27:04.864Z,28.26
2018-07-05T11:29:45.023Z,29.18
2018-07-05T11:32:24.657Z,29.32
2018-07-05T11:35:04.440Z,28.90
2018-07-05T11:37:44.179Z,31.26
2018-07-05T11:40:23.848Z,31.70
2018-07-05T11:43:03.877Z,30.29
2018-07-05T11:45:43.564Z,29.77
2018-07-05T11:48:23.374Z,30.26
2018-07-05T11:51:03.160Z,30.18
2018-07-05T11:53:42.776Z,30.49
2018-07-05T11:56:22.494Z,31.18
2018-07-05T11:59:02.278Z,31.60
2018-07-05T12:01:42.040Z,31.52
2018-07-05T12:04:21.712Z,31.65
2018-07-05T12:07:01.768Z,31.50
2018-07-05T12:09:41.646Z,31.66
2018-07-05T12:12:21.318Z,31.53
2018-07-05T12:15:00.866Z,31.72
2018-07-05T12:17:40.779Z,31.67
2018-07-05T12:20:20.505Z,31.78
2018-07-05T12:23:00.457Z,31.72
2018-07-05T12:25:40.020Z,32.48
2018-07-05T12:28:19.840Z,32.55
2018-07-05T12:30:59.591Z,32.22
2018-07-05T12:33:39.337Z,32.13
2018-07-05T12:36:18.972Z,32.67
2018-07-05T12:38:58.727Z,32.59
2018-07-05T12:41:38.525Z,32.91
2018-07-05T12:44:18.350Z,32.97
2018-07-05T12:46:58.411Z,32.56
2018-07-05T12:49:38.214Z,32.53
2018-07-05T12:52:17.960Z,32.41
2018-07-05T12:54:57.737Z,33.07
2018-07-05T12:57:37.607Z,33.06
2018-07-05T13:00:17.398Z,33.01
2018-07-05T13:02:57.611Z,32.83
2018-07-05T13:05:37.351Z,33.62
2018-07-05T13:08:17.015Z,33.17
2018-07-05T13:10:57.151Z,33.66
2018-07-05T13:13:36.752Z,34.31
2018-07-05T13:16:16.567Z,33.29
2018-07-05T13:18:56.710Z,33.69
2018-07-05T13:21:36.635Z,33.93
2018-07-05T13:24:16.471Z,33.87
2018-07-05T13:26:56.035Z,33.92
2018-07-05T13:29:35.823Z,34.29
2018-07-05T13:32:15.607Z,34.27
2018-07-05T13:34:55.206Z,34.68
2018-07-05T13:37:35.302Z,34.63
2018-07-05T13:40:15.049Z,34.67
2018-07-05T13:42:54.826Z,34.85
2018-07-05T13:45:34.621Z,34.95
2018-07-05T13:48:14.316Z,34.36
2018-07-05T13:50:54.063Z,34.59
2018-07-05T13:53:33.874Z,34.93
2018-07-05T13:56:13.608Z,34.59
2018-07-05T13:58:53.339Z,35.34
2018-07-05T14:01:33.150Z,35.99
2018-07-05T14:04:13.025Z,35.37
2018-07-05T14:06:52.936Z,35.23
2018-07-05T14:09:32.761Z,35.13
2018-07-05T14:12:12.702Z,35.54
2018-07-05T14:14:52.688Z,35.17
2018-07-05T14:17:32.230Z,35.73
2018-07-05T14:20:12.152Z,34.83
2018-07-05T14:22:52.056Z,35.28
2018-07-05T14:25:31.874Z,34.77
2018-07-05T14:28:11.692Z,35.45
2018-07-05T14:30:51.516Z,35.22
2018-07-05T14:33:31.141Z,35.08
2018-07-05T14:36:10.894Z,34.90
2018-07-05T14:38:50.844Z,35.51
2018-07-05T14:41:30.610Z,35.26
2018-07-05T14:44:10.383Z,35.51
2018-07-05T14:46:50.077Z,35.01
2018-07-05T14:49:29.920Z,34.95
2018-07-05T14:52:09.679Z,35.30
2018-07-05T14:54:49.446Z,35.62
2018-07-05T14:57:29.237Z,35.20
2018-07-05T15:00:09.118Z,35.15
2018-07-05T15:02:48.911Z,35.07
2018-07-05T15:05:28.484Z,34.70
2018-07-05T15:08:08.128Z,35.78
2018-07-05T15:10:47.845Z,35.69
2018-07-05T15:13:27.626Z,35.70
2018-07-05T15:16:07.350Z,35.91
2018-07-05T15:18:47.195Z,35.88
2018-07-05T15:21:26.834Z,36.11
2018-07-05T15:24:06.661Z,36.34
2018-07-05T15:26:46.397Z,36.73
2018-07-05T15:29:26.017Z,36.31
2018-07-05T15:32:06.031Z,37.18
2018-07-05T15:34:45.782Z,36.98
2018-07-05T15:37:25.596Z,36.31
2018-07-05T15:40:05.325Z,36.50
2018-07-05T15:42:45.239Z,36.70
2018-07-05T15:45:24.980Z,37.72
2018-07-05T15:48:04.700Z,37.04
2018-07-05T15:50:44.427Z,37.43
2018-07-05T15:53:24.113Z,37.58
2018-07-05T15:56:03.916Z,37.20
2018-07-05T15:58:43.528Z,36.78
2018-07-05T16:01:23.392Z,36.76
2018-07-05T16:04:02.976Z,37.06
2018-07-05T16:06:42.627Z,37.18
2018-07-05T16:09:22.556Z,37.70
2018-07-05T16:12:02.393Z,37.27
2018-07-05T16:14:42.199Z,37.57
2018-07-05T16:17:21.940Z,37.77
2018-07-05T16:20:01.835Z,39.33
2018-07-05T16:22:41.649Z,38.65
2018-07-05T16:25:21.495Z,38.66
2018-07-05T16:28:01.228Z,38.36
2018-07-05T16:30:40.928Z,38.02
2018-07-05T16:33:20.671Z,39.61
2018-07-05T16:36:00.500Z,38.99
2018-07-05T16:38:40.311Z,40.40
2018-07-05T16:41:20.071Z,39.23
2018-07-05T16:43:59.910Z,39.15
2018-07-05T16:46:39.772Z,39.63
2018-07-05T16:49:19.576Z,39.13
2018-07-05T16:51:59.351Z,39.42
2018-07-05T16:54:39.184Z,38.78
2018-07-05T16:57:18.975Z,39.10
2018-07-05T16:59:58.852Z,39.69
2018-07-05T17:02:38.627Z,39.17
2018-07-05T17:05:18.316Z,38.21
2018-07-05T17:07:58.014Z,38.31
2018-07-05T17:10:37.911Z,39.46
2018-07-05T17:13:17.745Z,39.34
2018-07-05T17:15:57.549Z,38.42
2018-07-05T17:18:37.196Z,39.21
2018-07-05T17:21:17.528Z,39.05
2018-07-05T17:23:57.305Z,38.78
2018-07-05T17:26:36.962Z,38.74
2018-07-05T17:29:16.668Z,38.74
2018-07-05T17:31:56.238Z,38.67
2018-07-05T17:34:36.055Z,37.61
2018-07-05T17:37:15.825Z,38.42
2018-07-05T17:39:55.471Z,38.17
2018-07-05T17:42:35.257Z,38.39
2018-07-05T17:45:15.033Z,39.18
2018-07-05T17:47:54.743Z,38.46
2018-07-05T17:50:34.543Z,38.45
2018-07-05T17:53:14.235Z,38.85
2018-07-05T17:55:54.245Z,38.42
2018-07-05T17:58:34.062Z,38.07
2018-07-05T18:01:14.521Z,38.73
2018-07-05T18:03:54.284Z,38.26
2018-07-05T18:06:37.270Z,38.57
2018-07-05T18:09:17.087Z,38.36
2018-07-05T18:11:56.690Z,38.65
2018-07-05T18:14:36.329Z,38.65
2018-07-05T18:17:16.055Z,39.12
2018-07-05T18:19:55.743Z,38.69
2018-07-05T18:22:35.431Z,38.03
2018-07-05T18:25:15.110Z,38.38
2018-07-05T18:27:55.402Z,38.24
2018-07-05T18:30:35.224Z,38.12
2018-07-05T18:33:15.032Z,38.13
2018-07-05T18:35:54.703Z,38.86
2018-07-05T18:38:34.379Z,38.27
2018-07-05T18:41:14.261Z,38.09
2018-07-05T18:43:54.059Z,38.43
2018-07-05T18:46:33.708Z,38.74
2018-07-05T18:49:13.490Z,38.23
2018-07-05T18:51:53.191Z,38.41
2018-07-05T18:54:32.815Z,38.70
2018-07-05T18:57:12.504Z,38.92
2018-07-05T18:59:52.335Z,38.71
2018-07-05T19:02:32.091Z,39.30
2018-07-05T19:05:11.736Z,38.55
2018-07-05T19:07:51.607Z,39.34
2018-07-05T19:10:31.229Z,39.29
2018-07-05T19:13:10.965Z,39.93
2018-07-05T19:15:50.601Z,39.90
2018-07-05T19:18:30.479Z,41.19
2018-07-05T19:21:10.360Z,39.73
2018-07-05T19:23:49.871Z,40.64
2018-07-05T19:26:29.786Z,40.74
2018-07-05T19:29:09.559Z,40.59
2018-07-05T19:31:49.394Z,41.87
2018-07-05T19:34:29.283Z,42.36
2018-07-05T19:37:09.171Z,42.10
2018-07-05T19:39:49.036Z,42.00
2018-07-05T19:42:28.848Z,42.10
2018-07-05T19:45:08.575Z,41.86
2018-07-05T19:47:48.277Z,42.49
2018-07-05T19:50:28.067Z,43.51
2018-07-05T19:53:07.887Z,42.52
2018-07-05T19:55:47.689Z,43.98
2018-07-05T19:58:27.535Z,44.30
2018-07-05T20:01:07.578Z,43.39
2018-07-05T20:03:47.337Z,44.11
2018-07-05T20:06:27.121Z,43.39
2018-07-05T20:09:07.724Z,42.86
2018-07-05T20:11:52.851Z,43.68
2018-07-05T20:14:32.626Z,43.70
2018-07-05T20:17:12.409Z,43.57
2018-07-05T20:19:52.181Z,44.43
2018-07-05T20:22:31.831Z,43.78
2018-07-05T20:25:11.651Z,44.08
2018-07-05T20:27:51.373Z,44.29
2018-07-05T20:30:31.194Z,44.27
2018-07-05T20:33:10.748Z,45.67
2018-07-05T20:35:50.590Z,44.67
2018-07-05T20:38:30.205Z,45.31
2018-07-05T20:41:10.003Z,45.55
2018-07-05T20:43:49.671Z,45.80
2018-07-05T20:46:29.319Z,45.37
2018-07-05T20:49:09.008Z,46.43
2018-07-05T20:51:48.796Z,45.45
2018-07-05T20:54:28.704Z,46.62
2018-07-05T20:57:08.349Z,46.90
2018-07-05T20:59:47.987Z,46.16
2018-07-05T21:02:27.637Z,46.93
2018-07-05T21:05:07.223Z,47.22
2018-07-05T21:07:47.035Z,48.09
2018-07-05T21:10:26.840Z,48.58
2018-07-05T21:13:06.679Z,47.09
2018-07-05T21:15:46.341Z,46.67
2018-07-05T21:18:25.983Z,48.61
2018-07-05T21:21:05.762Z,47.58
2018-07-05T21:23:45.577Z,48.53
2018-07-05T21:26:25.931Z,48.59
2018-07-05T21:29:05.645Z,48.74
2018-07-05T21:31:45.440Z,49.36
2018-07-05T21:34:25.298Z,47.79
2018-07-05T21:37:05.038Z,50.07
2018-07-05T21:39:44.745Z,48.89
2018-07-05T21:42:24.518Z,50.13
2018-07-05T21:45:04.191Z,49.19
2018-07-05T21:47:44.108Z,49.07
2018-07-05T21:50:23.800Z,49.01
2018-07-05T21:53:03.536Z,50.04
2018-07-05T21:55:43.932Z,49.36
2018-07-05T21:58:23.802Z,49.62
2018-07-05T22:01:03.349Z,50.38
2018-07-05T22:03:43.064Z,50.34
2018-07-05T22:06:22.841Z,51.02
2018-07-05T22:09:02.676Z,51.70
2018-07-05T22:11:42.400Z,51.19
2018-07-05T22:14:22.166Z,50.12
2018-07-05T22:17:07.328Z,50.73
2018-07-05T22:19:52.467Z,50.47
2018-07-05T22:22:37.642Z,53.10
2018-07-05T22:25:22.632Z,51.85
2018-07-05T22:28:07.634Z,51.51
2018-07-05T22:30:52.601Z,55.26
2018-07-05T22:33:32.265Z,53.40
2018-07-05T22:36:12.025Z,56.18
2018-07-05T22:38:51.648Z,53.76
2018-07-05T22:41:31.448Z,54.25
2018-07-05T22:44:11.119Z,53.46
2018-07-05T22:46:50.801Z,55.32
2018-07-05T22:49:30.611Z,55.18
2018-07-05T22:52:10.354Z,54.64
2018-07-05T22:54:50.217Z,53.74
2018-07-05T22:57:29.989Z,54.47
2018-07-05T23:00:09.788Z,56.91
2018-07-05T23:02:49.467Z,55.85
2018-07-05T23:05:29.255Z,54.72
2018-07-05T23:08:09.073Z,57.23
2018-07-05T23:10:48.907Z,55.77
2018-07-05T23:13:28.701Z,54.69
2018-07-05T23:16:08.403Z,55.38
2018-07-05T23:18:48.097Z,56.04
2018-07-05T23:21:27.819Z,56.08
2018-07-05T23:24:07.603Z,55.18
2018-07-05T23:26:47.310Z,56.32
2018-07-05T23:29:27.006Z,55.68
2018-07-05T23:32:06.937Z,56.83
2018-07-05T23:34:46.708Z,58.09
2018-07-05T23:37:26.532Z,55.31
2018-07-05T23:40:06.307Z,55.54
2018-07-05T23:42:46.109Z,55.33
2018-07-05T23:45:25.945Z,56.85
2018-07-05T23:48:05.736Z,55.66
2018-07-05T23:50:45.472Z,57.32
2018-07-05T23:53:25.279Z,57.08
2018-07-05T23:56:05.082Z,56.47
2018-07-05T23:58:44.724Z,56.73
